Time;durP1;ratioP1;P1;durP2;ratioP2;P2;SDS_P1;SDS_P2;PMS_P1;PMS_P2;Temp;Humidity;BMP_temperature;BMP_pressure;BME280_temperature;BME280_humidity;BME280_pressure;Samples;Min_cycle;Max_cycle;Signal;HPM_P1;HPM_P2
2021/06/01 00:00:31;;;;;;;8.95;8.10;;;;;;;30.32;52.30;100713.56;5073021;27;65254;-37
2021/06/01 00:03:01;;;;;;;16.98;8.15;;;;;;;30.34;52.90;100713.34;5076070;27;69974;-38
2021/06/01 00:05:32;;;;;;;12.77;8.60;;;;;;;30.44;52.90;100716.38;5073699;28;65338;-38
2021/06/01 00:08:02;;;;;;;11.63;8.23;;;;;;;30.48;53.82;100709.50;5073752;27;70039;-37
2021/06/01 00:10:33;;;;;;;15.52;9.07;;;;;;;30.55;56.05;100710.25;5073728;27;66134;-38
2021/06/01 00:13:03;;;;;;;14.93;10.40;;;;;;;30.62;57.40;100715.59;5071896;28;69632;-38
2021/06/01 00:15:33;;;;;;;11.98;10.80;;;;;;;30.69;58.14;100717.19;5070758;28;65479;-37
2021/06/01 00:18:04;;;;;;;12.85;10.82;;;;;;;30.75;58.84;100717.34;5071079;27;70031;-37
2021/06/01 00:20:35;;;;;;;22.70;11.40;;;;;;;30.82;59.37;100720.88;5073582;28;66026;-37
2021/06/01 00:23:05;;;;;;;17.25;10.70;;;;;;;30.89;60.04;100721.59;5072238;27;69042;-36
2021/06/01 00:25:36;;;;;;;13.65;11.40;;;;;;;30.96;59.99;100726.97;5071546;27;66114;-36
2021/06/01 00:28:06;;;;;;;12.18;10.93;;;;;;;31.00;61.08;100726.28;5073651;27;69336;-38
2021/06/01 00:30:36;;;;;;;12.40;11.35;;;;;;;31.02;61.77;100720.66;5074666;27;66322;-37
2021/06/01 00:33:10;;;;;;;15.93;11.35;;;;;;;31.10;61.76;100723.88;5070651;28;68585;-37
2021/06/01 00:35:41;;;;;;;13.38;10.75;;;;;;;31.15;61.12;100737.59;5064769;27;65980;-36
2021/06/01 00:38:11;;;;;;;26.10;15.02;;;;;;;31.16;63.31;100736.53;5075930;28;70335;-38
2021/06/01 00:40:42;;;;;;;26.52;17.83;;;;;;;31.19;63.33;100734.44;5071466;28;65109;-38
2021/06/01 00:43:12;;;;;;;34.67;21.05;;;;;;;31.11;63.67;100719.28;5075641;27;70201;-37
2021/06/01 00:45:43;;;;;;;31.67;19.80;;;;;;;31.25;65.56;100741.66;5067957;27;66111;-38
2021/06/01 00:48:14;;;;;;;26.58;19.17;;;;;;;31.05;64.61;100723.72;5069831;28;69885;-38
2021/06/01 00:50:45;;;;;;;26.15;20.20;;;;;;;31.35;65.32;100755.50;5074081;28;65381;-38
2021/06/01 00:53:15;;;;;;;24.27;19.17;;;;;;;31.30;65.10;100755.34;5072943;27;69904;-39
2021/06/01 00:55:46;;;;;;;31.42;19.52;;;;;;;31.30;64.86;100760.78;5067002;28;65668;-37
2021/06/01 00:58:17;;;;;;;25.30;19.75;;;;;;;31.37;65.26;100773.22;5063636;28;70186;-38
2021/06/01 01:01:09;;;;;;;23.52;19.10;;;;;;;31.43;64.95;100774.19;5062215;28;65969;-37
2021/06/01 01:03:40;;;;;;;23.38;18.00;;;;;;;31.41;64.81;100773.59;5067011;28;70154;-39
2021/06/01 01:06:18;;;;;;;23.63;16.90;;;;;;;31.51;65.17;100784.75;5059388;28;66447;-39
2021/06/01 01:08:54;;;;;;;27.20;17.30;;;;;;;31.53;65.33;100793.47;5060596;27;69033;-39
2021/06/01 01:11:36;;;;;;;23.42;17.55;;;;;;;31.29;66.38;100751.81;5066919;27;67118;-38
2021/06/01 01:14:51;;;;;;;23.48;16.52;;;;;;;31.56;66.40;100793.00;5070343;27;70560;-39
2021/06/01 01:17:26;;;;;;;22.55;16.92;;;;;;;31.24;65.58;100723.75;5022562;28;66150;-38
2021/06/01 01:20:02;;;;;;;20.70;15.52;;;;;;;31.71;65.13;100789.09;5070562;28;69989;-37
2021/06/01 01:22:44;;;;;;;30.35;15.23;;;;;;;31.40;65.47;100739.44;5064539;27;65984;-37
2021/06/01 01:25:36;;;;;;;24.63;14.43;;;;;;;31.73;66.82;100795.09;5050239;28;70338;-37
2021/06/01 01:28:30;;;;;;;24.27;13.85;;;;;;;31.75;66.33;100795.69;5064205;28;65214;-37
2021/06/01 01:31:11;;;;;;;16.77;13.90;;;;;;;31.70;65.46;100792.84;5068490;27;70584;-37
2021/06/01 01:33:43;;;;;;;14.18;12.82;;;;;;;31.66;62.72;100787.06;5069977;28;65077;-37
2021/06/01 01:36:15;;;;;;;17.70;12.90;;;;;;;31.57;60.55;100807.41;5071714;28;70541;-37
2021/06/01 01:38:48;;;;;;;14.90;11.50;;;;;;;31.45;58.96;100798.34;5070873;28;65094;-36
2021/06/01 01:41:20;;;;;;;15.98;10.93;;;;;;;31.25;57.09;100795.84;5070029;28;68601;-38
2021/06/01 01:43:52;;;;;;;13.52;10.73;;;;;;;31.10;55.86;100780.78;5071601;28;66118;-38
2021/06/01 01:49:02;;;;;;;17.77;10.15;;;;;;;30.96;54.55;100800.94;5067566;28;65961;-39
2021/06/01 01:51:33;;;;;;;22.45;9.98;;;;;;;30.85;53.46;100804.38;5074916;27;69043;-36
2021/06/01 01:54:17;;;;;;;21.23;10.07;;;;;;;30.41;52.33;100749.31;5072148;27;65108;-36
2021/06/01 01:56:51;;;;;;;18.98;8.98;;;;;;;30.66;52.36;100809.69;5068436;28;69981;-35
2021/06/01 01:59:25;;;;;;;16.10;8.63;;;;;;;30.56;51.25;100809.34;5069611;28;65338;-36
2021/06/01 02:01:57;;;;;;;13.98;9.05;;;;;;;30.51;51.96;100811.91;5067962;28;69087;-36
2021/06/01 02:04:31;;;;;;;10.07;8.40;;;;;;;30.46;50.91;100811.72;5074706;28;66269;-35
2021/06/01 02:07:01;;;;;;;12.57;8.52;;;;;;;30.38;50.79;100802.00;5070887;27;70128;-36
2021/06/01 02:09:32;;;;;;;13.00;8.50;;;;;;;30.37;49.85;100804.91;5072841;27;66187;-37
2021/06/01 02:12:03;;;;;;;36.72;9.35;;;;;;;30.35;50.21;100807.03;5074053;27;70118;-35
2021/06/01 02:14:33;;;;;;;23.95;8.95;;;;;;;30.23;50.24;100794.19;5064851;28;65332;-37
2021/06/01 02:17:04;;;;;;;24.20;8.38;;;;;;;30.05;48.65;100756.19;5075570;27;69285;-36
2021/06/01 02:19:34;;;;;;;39.20;8.50;;;;;;;30.31;48.63;100794.97;5069675;28;65511;-37
2021/06/01 02:25:32;;;;;;;14.40;7.30;;;;;;;30.25;48.48;100792.06;5061476;27;65229;-36
2021/06/01 02:28:20;;;;;;;14.27;7.75;;;;;;;30.14;46.69;100773.81;5074667;28;69931;-37
2021/06/01 02:30:52;;;;;;;15.73;8.50;;;;;;;30.13;47.63;100758.63;5069297;28;66163;-37
2021/06/01 02:33:25;;;;;;;24.13;8.15;;;;;;;30.22;48.34;100776.28;5072441;28;69925;-38
2021/06/01 02:35:59;;;;;;;35.75;8.23;;;;;;;30.21;47.93;100779.19;5070568;28;66133;-35
2021/06/01 02:38:33;;;;;;;20.55;8.35;;;;;;;29.54;47.74;100655.16;5070097;28;69862;-37
2021/06/01 02:41:06;;;;;;;38.22;8.15;;;;;;;30.13;46.97;100758.63;5070741;27;65425;-37
2021/06/01 02:43:37;;;;;;;25.35;8.07;;;;;;;30.16;47.14;100771.72;5070542;27;70553;-39
2021/06/01 02:46:08;;;;;;;17.20;7.55;;;;;;;30.12;47.03;100754.28;5070263;27;66080;-36
2021/06/01 02:48:39;;;;;;;27.45;7.30;;;;;;;30.13;45.67;100766.75;5072927;27;70426;-37
2021/06/01 02:51:18;;;;;;;18.08;7.57;;;;;;;30.16;45.41;100760.06;5067881;28;65975;-36
2021/06/01 02:53:54;;;;;;;25.83;8.10;;;;;;;29.74;45.55;100695.63;5066973;28;70071;-35
2021/06/01 02:56:27;;;;;;;19.83;7.80;;;;;;;30.11;45.50;100752.59;5065318;28;66794;-37
2021/06/01 02:58:59;;;;;;;25.60;6.85;;;;;;;30.12;45.19;100758.88;5063050;28;70865;-37
2021/06/01 03:01:30;;;;;;;;;;;;;;;29.90;45.67;100756.47;5069088;28;65962;-37
2021/06/01 03:04:00;;;;;;;26.35;7.90;;;;;;;30.11;45.17;100763.41;5072994;27;70335;-36
2021/06/01 03:06:34;;;;;;;24.65;7.45;;;;;;;30.12;44.67;100761.56;5071351;27;66780;-36
2021/06/01 03:09:05;;;;;;;25.95;7.25;;;;;;;30.16;44.01;100760.88;5067592;28;69816;-37
2021/06/01 03:11:37;;;;;;;34.00;7.40;;;;;;;30.14;43.27;100752.16;5076468;27;65753;-37
2021/06/01 03:14:07;;;;;;;30.95;7.13;;;;;;;30.14;43.46;100754.88;5073403;28;69310;-35
2021/06/01 03:16:38;;;;;;;17.58;6.22;;;;;;;30.15;44.96;100740.31;5069443;27;66092;-36
2021/06/01 03:19:09;;;;;;;14.25;6.97;;;;;;;30.18;44.14;100739.88;5071179;27;69885;-41
2021/06/01 03:21:39;;;;;;;20.10;6.90;;;;;;;30.21;44.74;100747.53;5068314;28;66261;-36
2021/06/01 03:24:10;;;;;;;16.48;6.38;;;;;;;30.24;44.46;100730.91;5067995;28;69493;-36
2021/06/01 03:26:40;;;;;;;15.48;6.82;;;;;;;30.17;46.10;100719.28;5072885;27;66302;-37
2021/06/01 03:29:10;;;;;;;17.50;6.55;;;;;;;30.16;45.29;100712.19;5070116;28;69277;-38
2021/06/01 03:31:41;;;;;;;21.65;7.25;;;;;;;30.25;45.34;100727.13;5067967;27;66348;-36
2021/06/01 03:34:11;;;;;;;30.40;7.38;;;;;;;30.26;46.14;100728.00;5070742;28;69051;-35
2021/06/01 03:36:42;;;;;;;35.45;6.90;;;;;;;30.27;45.94;100714.22;5067694;27;65222;-34
2021/06/01 03:39:13;;;;;;;53.45;7.60;;;;;;;30.32;45.82;100710.03;5071091;27;70181;-35
2021/06/01 03:41:43;;;;;;;40.90;7.65;;;;;;;30.32;45.52;100710.03;5071637;28;66021;-35
2021/06/01 03:44:15;;;;;;;24.23;6.60;;;;;;;30.23;45.30;100690.56;5074358;28;69469;-35
2021/06/01 03:46:45;;;;;;;;;;;;;;;29.75;44.35;100651.31;5072625;28;66112;-35
2021/06/01 03:49:16;;;;;;;20.63;7.10;;;;;;;30.30;44.56;100712.13;5072356;28;69005;-35
2021/06/01 03:51:46;;;;;;;30.55;6.43;;;;;;;30.28;43.98;100702.38;5076340;27;66202;-35
2021/06/01 03:54:18;;;;;;;16.58;5.82;;;;;;;30.28;44.14;100699.66;5075985;27;69465;-35
2021/06/01 03:56:49;;;;;;;13.52;6.30;;;;;;;30.26;43.38;100685.53;5069379;28;63795;-34
2021/06/01 03:59:19;;;;;;;20.80;7.93;;;;;;;30.27;43.19;100691.75;5067847;28;69800;-34
2021/06/01 04:01:50;;;;;;;39.03;7.40;;;;;;;30.35;45.03;100693.38;5068940;27;65257;-37
2021/06/01 04:04:20;;;;;;;20.75;6.40;;;;;;;30.34;45.03;100686.28;5068941;28;69780;-37
2021/06/01 04:06:50;;;;;;;11.65;6.53;;;;;;;30.32;45.27;100689.22;5064332;27;66117;-34
2021/06/01 04:09:22;;;;;;;25.63;7.03;;;;;;;30.39;45.00;100683.75;5077302;28;69194;-34
2021/06/01 04:11:52;;;;;;;23.23;7.35;;;;;;;30.40;44.81;100680.81;5071223;28;66022;-34
2021/06/01 04:14:23;;;;;;;11.13;6.60;;;;;;;30.44;46.15;100686.63;5071070;28;69942;-35
2021/06/01 04:16:58;;;;;;;22.23;6.80;;;;;;;30.43;46.89;100668.72;5068270;28;65373;-36
2021/06/01 04:19:28;;;;;;;10.25;6.75;;;;;;;30.47;46.25;100664.50;5073994;27;70804;-36
2021/06/01 04:21:59;;;;;;;17.40;7.00;;;;;;;30.45;45.80;100670.16;5066828;28;65903;-36
2021/06/01 04:24:30;;;;;;;25.63;6.75;;;;;;;30.42;45.48;100667.06;5068600;28;70175;-36
2021/06/01 04:27:01;;;;;;;9.52;6.78;;;;;;;30.41;44.38;100665.41;5070674;28;65130;-35
2021/06/01 04:29:33;;;;;;;11.65;7.40;;;;;;;30.24;43.29;100641.63;5065743;27;70414;-36
2021/06/01 04:32:04;;;;;;;18.35;6.55;;;;;;;30.37;43.46;100656.06;5069120;28;67433;-35
2021/06/01 04:34:37;;;;;;;9.07;6.68;;;;;;;30.38;43.26;100658.56;5067581;28;69763;-37
2021/06/01 04:37:08;;;;;;;11.63;5.68;;;;;;;30.36;42.39;100640.88;5072777;28;65361;-36
2021/06/01 04:39:39;;;;;;;9.00;5.95;;;;;;;30.20;42.38;100616.03;5072492;27;70401;-37
2021/06/01 04:42:10;;;;;;;7.18;5.68;;;;;;;30.41;41.87;100649.16;5072463;27;65342;-37
2021/06/01 04:44:40;;;;;;;6.88;5.72;;;;;;;30.31;41.49;100632.59;5066992;28;70431;-36
2021/06/01 04:47:16;;;;;;;6.85;6.13;;;;;;;30.44;41.19;100646.00;5076896;28;65499;-39
2021/06/01 04:49:48;;;;;;;10.07;6.05;;;;;;;30.44;40.98;100638.72;5071625;28;69498;-39
2021/06/01 04:52:18;;;;;;;5.82;5.20;;;;;;;30.44;41.64;100624.38;5074766;27;66242;-37
2021/06/01 04:54:49;;;;;;;6.30;5.50;;;;;;;30.51;41.94;100627.84;5076668;27;69891;-38
2021/06/01 04:57:19;;;;;;;6.00;5.00;;;;;;;30.51;41.26;100611.59;5070351;27;66524;-38
2021/06/01 04:59:50;;;;;;;8.20;5.70;;;;;;;30.49;41.00;100613.69;5076206;27;69024;-38
2021/06/01 05:02:21;;;;;;;5.78;5.35;;;;;;;30.50;41.66;100615.34;5073562;27;66272;-37
2021/06/01 05:04:52;;;;;;;6.85;5.60;;;;;;;30.46;40.94;100617.69;5066387;27;69551;-38
2021/06/01 05:07:23;;;;;;;5.53;5.07;;;;;;;30.39;41.94;100597.97;5074370;27;65496;-37
2021/06/01 05:10:00;;;;;;;6.63;5.75;;;;;;;30.48;42.76;100607.47;5070464;28;70061;-39
2021/06/01 05:12:31;;;;;;;6.03;5.50;;;;;;;30.46;42.45;100597.91;5074061;27;65461;-39
2021/06/01 05:15:02;;;;;;;5.63;5.13;;;;;;;30.36;41.83;100593.00;5063988;28;70203;-39
2021/06/01 05:17:33;;;;;;;6.47;5.38;;;;;;;30.41;41.58;100595.03;5071297;28;65586;-39
2021/06/01 05:20:05;;;;;;;6.40;5.30;;;;;;;30.44;41.81;100589.19;5068584;28;69868;-38
2021/06/01 05:22:35;;;;;;;5.60;5.10;;;;;;;30.34;41.58;100567.22;5073755;28;66011;-38
2021/06/01 05:25:07;;;;;;;5.80;5.35;;;;;;;30.44;40.26;100583.75;5071925;28;69920;-37
2021/06/01 05:27:38;;;;;;;5.35;5.00;;;;;;;30.42;41.36;100575.88;5067634;28;66233;-39
2021/06/01 05:30:09;;;;;;;7.88;5.18;;;;;;;30.18;41.32;100528.84;5073326;27;69768;-37
2021/06/01 05:35:21;;;;;;;9.23;4.78;;;;;;;30.43;40.37;100571.28;5072790;28;69811;-38
2021/06/01 05:37:52;;;;;;;8.35;5.80;;;;;;;30.44;41.71;100562.13;5068928;28;66040;-38
2021/06/01 05:40:24;;;;;;;23.67;5.20;;;;;;;30.45;41.29;100552.94;5067436;28;69933;-40
2021/06/01 05:42:54;;;;;;;10.95;5.63;;;;;;;30.46;41.20;100551.91;5069622;27;67538;-40
2021/06/01 05:45:25;;;;;;;13.52;4.95;;;;;;;30.44;40.76;100545.88;5071883;27;69477;-43
2021/06/01 05:47:55;;;;;;;14.90;5.78;;;;;;;30.43;40.88;100538.81;5073444;27;66083;-40
2021/06/01 05:50:26;;;;;;;8.38;4.78;;;;;;;30.44;40.30;100526.94;5072154;27;69345;-41
2021/06/01 05:52:58;;;;;;;12.40;5.18;;;;;;;30.33;39.99;100506.03;5067447;28;66585;-41
2021/06/01 05:55:28;;;;;;;;;;;;;;;30.11;39.56;100517.25;5067616;27;69016;-40
2021/06/01 05:57:59;;;;;;;7.13;5.05;;;;;;;30.33;39.71;100506.03;5069231;27;66246;-40
2021/06/01 06:00:30;;;;;;;12.30;5.05;;;;;;;30.37;38.94;100518.06;5067725;27;69647;-40
2021/06/01 06:03:03;;;;;;;10.37;5.53;;;;;;;30.14;39.90;100487.06;5065013;28;65865;-40
2021/06/01 06:05:34;;;;;;;6.35;5.03;;;;;;;30.33;39.30;100511.44;5076379;27;70019;-41
2021/06/01 06:08:19;;;;;;;17.13;5.80;;;;;;;30.08;38.56;100469.03;5072983;27;66334;-39
2021/06/01 06:10:50;;;;;;;5.78;5.25;;;;;;;30.31;39.17;100505.44;5070928;27;69384;-39
2021/06/01 06:13:22;;;;;;;5.55;4.95;;;;;;;30.34;38.87;100502.25;5070577;27;65816;-39
2021/06/01 06:15:53;;;;;;;5.63;5.13;;;;;;;30.28;39.02;100485.06;5073219;27;69935;-39
2021/06/01 06:18:31;;;;;;;20.63;4.90;;;;;;;30.32;39.14;100496.28;5070555;27;65036;-38
2021/06/01 06:21:05;;;;;;;10.95;5.07;;;;;;;30.34;39.37;100480.63;5067213;28;68857;-39
2021/06/01 06:23:41;;;;;;;11.55;5.07;;;;;;;30.24;38.92;100468.47;5074617;28;66233;-39
2021/06/01 06:26:13;;;;;;;17.40;5.38;;;;;;;30.40;42.10;100475.16;5076241;27;70001;-38
2021/06/01 06:28:44;;;;;;;7.63;5.78;;;;;;;30.43;43.61;100453.03;5062593;28;65919;-39
2021/06/01 06:31:15;;;;;;;8.82;4.93;;;;;;;30.53;43.10;100454.38;5070191;28;69815;-39
2021/06/01 06:33:46;;;;;;;6.38;5.28;;;;;;;30.53;42.08;100447.06;5072826;28;66259;-38
2021/06/01 06:36:17;;;;;;;11.80;5.30;;;;;;;30.59;43.42;100451.59;5071565;27;69846;-39
2021/06/01 06:38:48;;;;;;;11.75;5.40;;;;;;;30.64;43.68;100451.72;5071085;27;66651;-44
2021/06/01 06:41:19;;;;;;;16.15;4.88;;;;;;;30.64;43.06;100454.41;5070220;28;69782;-39
2021/06/01 06:43:50;;;;;;;6.65;5.25;;;;;;;30.64;42.88;100443.59;5078580;27;65433;-38
2021/06/01 06:48:56;;;;;;;19.00;5.70;;;;;;;30.66;41.58;100435.25;5071899;28;65004;-38
2021/06/01 06:51:31;;;;;;;7.53;5.38;;;;;;;30.61;42.01;100429.69;5071984;27;69668;-39
2021/06/01 06:54:03;;;;;;;6.70;5.32;;;;;;;30.33;40.42;100387.78;5071950;28;67121;-38
2021/06/01 06:56:34;;;;;;;8.95;4.70;;;;;;;30.61;40.89;100427.81;5078842;27;69514;-38
2021/06/01 06:59:07;;;;;;;12.77;5.18;;;;;;;30.62;40.26;100428.63;5077367;28;65218;-37
2021/06/01 07:01:38;;;;;;;5.50;5.00;;;;;;;30.59;40.38;100426.38;5077538;28;69113;-39
2021/06/01 07:04:08;;;;;;;12.70;5.63;;;;;;;30.55;39.46;100422.50;5074668;28;65386;-38
2021/06/01 07:06:40;;;;;;;7.45;5.30;;;;;;;30.61;39.83;100416.16;5077207;28;69292;-40
2021/06/01 07:09:11;;;;;;;11.60;5.20;;;;;;;30.60;39.17;100387.44;5074382;27;65284;-39
2021/06/01 07:11:42;;;;;;;18.08;5.20;;;;;;;30.63;38.70;100393.22;5076559;28;69867;-38
2021/06/01 07:14:16;;;;;;;;;;;;;;;30.33;38.41;100392.38;5076075;28;64972;-38
2021/06/01 07:16:47;;;;;;;6.10;4.82;;;;;;;30.60;38.99;100393.69;5073768;28;70502;-37
2021/06/01 07:19:20;;;;;;;14.88;5.47;;;;;;;30.64;39.44;100392.16;5069947;27;65021;-39
2021/06/01 07:21:51;;;;;;;;;;;;;;;30.41;40.00;100400.19;5074306;27;69917;-40
2021/06/01 07:24:21;;;;;;;9.95;4.93;;;;;;;30.64;39.54;100400.28;5071065;28;67523;-38
2021/06/01 07:26:52;;;;;;;10.13;4.85;;;;;;;30.69;39.14;100389.59;5074384;28;69744;-38
2021/06/01 07:29:22;;;;;;;12.27;4.70;;;;;;;30.72;40.06;100375.59;5075528;27;66370;-39
2021/06/01 07:31:55;;;;;;;16.27;5.27;;;;;;;30.71;39.88;100363.13;5078199;27;70234;-39
2021/06/01 07:34:25;;;;;;;12.55;4.85;;;;;;;30.87;42.69;100366.22;5067504;28;65805;-38
2021/06/01 07:36:57;;;;;;;5.13;4.63;;;;;;;31.03;43.95;100373.66;5065609;28;70016;-38
2021/06/01 07:39:27;;;;;;;12.88;4.70;;;;;;;31.13;43.39;100376.63;5075039;28;66776;-38
2021/06/01 07:41:59;;;;;;;7.38;5.20;;;;;;;31.36;44.51;100391.28;5071391;28;70325;-38
2021/06/01 07:44:30;;;;;;;16.98;6.07;;;;;;;31.55;45.90;100409.09;5074895;27;66401;-38
2021/06/01 07:47:02;;;;;;;25.42;6.45;;;;;;;31.73;46.37;100412.72;5074823;28;70104;-38
2021/06/01 07:49:33;;;;;;;17.85;6.78;;;;;;;31.88;47.36;100420.41;5074648;28;66645;-39
2021/06/01 07:52:05;;;;;;;21.38;7.82;;;;;;;32.04;48.97;100419.69;5072172;27;69750;-39
2021/06/01 07:54:37;;;;;;;25.13;9.52;;;;;;;32.15;51.05;100409.84;5072615;27;65448;-39
2021/06/01 07:57:07;;;;;;;23.80;10.63;;;;;;;32.34;52.44;100403.19;5076987;28;69790;-37
2021/06/01 07:59:40;;;;;;;15.18;10.85;;;;;;;32.45;51.94;100385.19;5071299;27;65600;-39
2021/06/01 08:02:10;;;;;;;26.25;10.25;;;;;;;32.57;53.77;100385.16;5087961;27;70657;-39
2021/06/01 08:04:41;;;;;;;21.27;10.82;;;;;;;32.64;53.78;100385.84;5073021;28;65677;-39
2021/06/01 08:07:13;;;;;;;16.77;10.13;;;;;;;32.73;53.70;100384.38;5072499;27;69029;-39
2021/06/01 08:09:44;;;;;;;21.92;9.80;;;;;;;32.81;55.81;100396.75;5068426;28;65236;-37
2021/06/01 08:12:15;;;;;;;30.63;10.65;;;;;;;32.90;55.21;100417.84;5069585;27;69296;-39
2021/06/01 08:14:45;;;;;;;22.33;9.90;;;;;;;32.94;54.81;100418.97;5072319;27;65046;-39
2021/06/01 08:17:16;;;;;;;19.27;8.77;;;;;;;33.01;54.98;100434.31;5069528;28;70155;-39
2021/06/01 08:19:48;;;;;;;25.92;9.07;;;;;;;33.09;55.61;100431.22;5074451;28;65857;-39
2021/06/01 08:24:50;;;;;;;38.30;10.68;;;;;;;33.22;56.27;100439.03;5069751;27;67092;-40
2021/06/01 08:27:21;;;;;;;28.40;11.45;;;;;;;33.29;57.16;100441.59;5074355;27;69488;-40
2021/06/01 08:30:05;;;;;;;18.10;10.15;;;;;;;33.30;57.72;100444.06;5070622;28;66178;-40
2021/06/01 08:32:36;;;;;;;27.08;10.80;;;;;;;33.36;57.18;100440.34;5072218;28;70039;-39
2021/06/01 08:35:07;;;;;;;22.60;10.38;;;;;;;33.36;59.08;100432.19;5072870;27;66144;-39
2021/06/01 08:37:40;;;;;;;31.52;9.70;;;;;;;33.30;58.73;100427.75;5075441;27;68869;-39
2021/06/01 08:40:11;;;;;;;23.58;10.55;;;;;;;33.25;59.23;100414.09;5072815;28;67303;-39
2021/06/01 08:42:43;;;;;;;15.20;9.37;;;;;;;33.28;58.37;100424.47;5076881;27;69849;-38
2021/06/01 08:45:15;;;;;;;12.52;9.02;;;;;;;33.24;58.63;100434.19;5072144;27;65409;-38
2021/06/01 08:47:45;;;;;;;10.50;8.88;;;;;;;33.20;59.06;100433.03;5071594;28;69213;-39
2021/06/01 08:50:18;;;;;;;12.97;10.83;;;;;;;33.12;59.05;100408.97;5073431;27;65131;-39
2021/06/01 08:52:49;;;;;;;13.52;10.13;;;;;;;33.17;58.98;100398.19;5069728;28;69161;-39
2021/06/01 08:55:20;;;;;;;20.53;10.63;;;;;;;33.12;59.66;100389.94;5072986;27;66330;-39
2021/06/01 08:57:50;;;;;;;12.27;9.48;;;;;;;33.07;60.03;100384.44;5068290;28;68333;-39
2021/06/01 09:00:21;;;;;;;11.15;10.13;;;;;;;33.18;60.42;100405.25;5065726;27;65313;-39
2021/06/01 09:03:10;;;;;;;13.10;10.20;;;;;;;33.15;62.32;100422.06;5075787;28;69887;-39
2021/06/01 09:06:25;;;;;;;10.60;9.57;;;;;;;33.12;62.45;100422.56;5074707;28;65589;-40
2021/06/01 09:23:05;;;;;;;15.35;10.32;;;;;;;32.65;62.50;100349.47;5069934;27;66074;-41
2021/06/01 09:25:46;;;;;;;15.25;10.75;;;;;;;32.94;63.35;100397.25;5069365;28;70056;-40
2021/06/01 09:28:17;;;;;;;12.97;11.67;;;;;;;32.91;63.13;100397.75;5066069;28;65137;-41
2021/06/01 09:31:01;;;;;;;13.40;11.63;;;;;;;32.70;63.16;100357.72;5072573;28;69908;-40
2021/06/01 09:33:32;;;;;;;14.95;12.38;;;;;;;32.93;63.51;100417.34;5068072;27;66167;-41
2021/06/01 09:36:05;;;;;;;17.98;12.45;;;;;;;32.37;62.60;100326.69;5076980;27;69992;-40
2021/06/01 09:38:44;;;;;;;13.25;11.00;;;;;;;32.64;63.13;100375.00;5075259;27;66645;-40
2021/06/01 09:41:20;;;;;;;12.77;11.48;;;;;;;33.00;62.05;100421.81;5071757;28;69895;-40
2021/06/01 09:43:56;;;;;;;10.88;9.88;;;;;;;32.93;61.89;100402.91;5073672;28;64788;-41
2021/06/01 09:46:28;;;;;;;13.18;10.30;;;;;;;32.98;62.19;100407.63;5068053;28;69407;-41
2021/06/01 09:49:14;;;;;;;20.00;10.05;;;;;;;32.95;61.67;100400.78;5076395;27;66291;-42
2021/06/01 09:52:04;;;;;;;16.90;9.98;;;;;;;32.98;62.27;100404.91;5067984;27;70255;-39
2021/06/01 09:54:46;;;;;;;16.73;9.95;;;;;;;33.07;61.59;100419.75;5070003;28;66376;-39
2021/06/01 09:57:19;;;;;;;20.73;10.43;;;;;;;33.07;61.04;100433.34;5073212;28;69978;-39
2021/06/01 10:00:12;;;;;;;17.30;12.45;;;;;;;32.98;61.49;100432.06;5071730;28;66346;-38
2021/06/01 10:02:45;;;;;;;20.55;12.90;;;;;;;32.96;61.09;100415.19;5075376;28;69858;-39
2021/06/01 10:05:31;;;;;;;19.13;11.68;;;;;;;32.70;60.96;100374.00;5071168;28;65947;-38
2021/06/01 10:08:13;;;;;;;16.17;11.07;;;;;;;32.89;60.67;100421.59;5073224;28;68821;-39
2021/06/01 10:11:00;;;;;;;18.05;12.40;;;;;;;32.90;60.50;100417.84;5074392;27;66897;-39
2021/06/01 10:13:50;;;;;;;20.45;12.25;;;;;;;32.78;60.69;100422.50;5066312;28;69933;-38
2021/06/01 10:16:46;;;;;;;21.42;12.05;;;;;;;32.83;60.07;100428.03;5073206;28;65994;-38
2021/06/01 10:19:17;;;;;;;16.20;12.52;;;;;;;32.76;59.84;100424.63;5075147;27;70606;-39
2021/06/01 10:21:53;;;;;;;21.35;12.07;;;;;;;32.78;60.40;100425.22;5078586;27;66196;-41
2021/06/01 10:24:25;;;;;;;17.77;12.68;;;;;;;32.78;60.34;100425.22;5079283;27;70569;-38
2021/06/01 10:26:57;;;;;;;25.60;13.68;;;;;;;32.72;60.47;100405.28;5075770;28;65190;-38
2021/06/01 10:29:29;;;;;;;47.90;14.18;;;;;;;32.76;60.73;100418.38;5076861;28;70314;-38
2021/06/01 10:31:59;;;;;;;24.25;13.88;;;;;;;32.75;60.55;100414.03;5075770;28;65830;-39
2021/06/01 10:34:32;;;;;;;18.00;13.25;;;;;;;32.75;60.99;100409.41;5078899;27;68995;-38
2021/06/01 10:43:46;;;;;;;20.20;14.23;;;;;;;32.60;62.37;100422.72;5073716;28;65780;-38
2021/06/01 10:49:59;;;;;;;31.02;14.60;;;;;;;32.61;62.01;100418.94;5076520;27;66725;-39
2021/06/01 10:52:13;;;;;;;20.25;14.57;;;;;;;32.58;62.28;100414.81;5076010;28;69962;-39
2021/06/01 10:54:48;;;;;;;16.42;13.27;;;;;;;32.54;62.31;100413.66;5077399;27;65479;-39
2021/06/01 10:57:22;;;;;;;24.02;14.18;;;;;;;32.52;62.37;100410.34;5072668;28;69802;-39
2021/06/01 11:02:27;;;;;;;24.73;13.90;;;;;;;32.53;62.64;100419.31;5075907;28;69425;-40
2021/06/01 11:05:15;;;;;;;20.67;14.10;;;;;;;32.45;61.32;100415.88;5067884;28;66114;-40
2021/06/01 11:07:52;;;;;;;22.75;13.73;;;;;;;32.38;59.05;100423.34;5067559;28;69682;-39
2021/06/01 11:10:45;;;;;;;21.92;13.38;;;;;;;31.57;56.98;100322.94;5067834;28;66188;-38
2021/06/01 11:13:18;;;;;;;13.25;11.85;;;;;;;32.09;55.12;100405.38;5070737;28;69360;-39
2021/06/01 11:15:59;;;;;;;28.30;11.80;;;;;;;31.65;53.75;100369.69;5071167;27;65530;-40
2021/06/01 11:18:40;;;;;;;23.75;11.93;;;;;;;31.77;53.04;100411.19;5071076;27;70541;-39
2021/06/01 11:21:42;;;;;;;17.42;11.43;;;;;;;31.64;51.82;100425.00;5071728;27;65172;-38
2021/06/01 11:35:30;;;;;;;21.80;10.37;;;;;;;31.03;49.14;100463.06;5064773;28;70145;-38
2021/06/01 11:41:07;;;;;;;21.70;11.00;;;;;;;30.58;47.48;100422.84;5067215;27;70290;-39
2021/06/01 11:43:38;;;;;;;26.80;11.27;;;;;;;30.82;48.51;100477.16;5073848;27;65097;-38
2021/06/01 11:51:26;;;;;;;14.85;10.43;;;;;;;30.68;48.04;100480.00;5063676;27;70606;-40
2021/06/01 11:54:08;;;;;;;31.02;10.48;;;;;;;30.54;47.05;100475.81;5068502;28;67247;-39
2021/06/01 12:05:17;;;;;;;30.52;10.65;;;;;;;30.12;47.49;100437.78;5063451;27;66404;-38
2021/06/01 12:19:11;;;;;;;19.33;10.27;;;;;;;30.18;46.36;100504.50;5071491;27;70128;-38
2021/06/01 12:21:50;;;;;;;24.05;11.30;;;;;;;29.88;49.29;100463.00;5066223;28;65285;-39
2021/06/01 12:24:23;;;;;;;20.77;10.55;;;;;;;30.16;49.15;100528.25;5068124;27;69666;-38
2021/06/01 12:32:30;;;;;;;12.10;10.02;;;;;;;29.93;46.71;100525.38;5068548;27;65724;-38
2021/06/01 12:43:59;;;;;;;13.55;9.85;;;;;;;29.78;43.97;100545.47;5067399;28;66193;-39
2021/06/01 12:46:44;;;;;;;15.50;10.27;;;;;;;29.86;44.89;100551.63;5069101;27;70257;-39
2021/06/01 13:20:44;;;;;;;29.30;9.98;;;;;;;29.65;42.28;100575.28;5072117;28;69878;-39
2021/06/01 13:32:11;;;;;;;11.60;9.75;;;;;;;29.51;42.37;100566.41;5063815;27;69022;-41
2021/06/01 14:15:18;;;;;;;10.57;9.35;;;;;;;29.18;40.93;100572.03;5060443;28;70564;-40
2021/06/01 14:29:22;;;;;;;11.20;10.10;;;;;;;29.68;40.43;100585.66;5072735;27;70432;-34
2021/06/01 14:35:44;;;;;;;17.13;9.80;;;;;;;29.60;40.52;100572.38;5058995;28;66490;-36
2021/06/01 15:22:30;;;;;;;14.15;8.02;;;;;;;29.32;42.43;100624.94;5047606;28;66485;-38
2021/06/01 15:53:49;;;;;;;9.27;6.93;;;;;;;29.02;40.40;100626.50;5064327;28;70138;-42
2021/06/01 16:14:42;;;;;;;10.48;6.70;;;;;;;28.93;39.62;100615.94;5065816;27;66441;-36
2021/06/01 16:31:24;;;;;;;9.35;6.53;;;;;;;28.10;39.80;100506.97;5061157;28;66669;-36
2021/06/01 17:05:50;;;;;;;10.82;7.10;;;;;;;28.19;40.49;100543.44;5068713;28;65392;-39
2021/06/01 17:11:11;;;;;;;7.63;6.30;;;;;;;28.41;39.84;100589.91;5067820;27;66917;-36
2021/06/01 17:13:55;;;;;;;10.48;6.65;;;;;;;28.39;39.61;100595.50;5071754;28;69135;-37
2021/06/01 17:36:03;;;;;;;6.80;6.15;;;;;;;28.26;39.41;100593.66;5068161;27;69731;-37